This is the latest recevied weather packets stored in our database for station/object DM4WH-13. If no packets are shown the sender has not sent any weather packets the latest 10 day(s).
| Time | Temp. | Humidity | Pressure | Rain* | Wind** | Luminosity | Snow |
|---|---|---|---|---|---|---|---|
| 1777445419 | 7.78° C | 44% | 1029.7 hPa | 0 mm | 1.34 m/s, 36° | - | - |
| 1777445107 | 7.78° C | 45% | 1029.5 hPa | 0 mm | 0.89 m/s, 27° | - | - |
| 1777444820 | 7.78° C | 46% | 1029.5 hPa | 0 mm | 1.34 m/s, 17° | - | - |
| 1777444507 | 7.78° C | 46% | 1029.4 hPa | 0 mm | 0.89 m/s, 24° | - | - |
| 1777444219 | 7.22° C | 48% | 1029.4 hPa | 0 mm | 0.45 m/s, 34° | - | - |
| 1777443907 | 7.22° C | 47% | 1029.3 hPa | 0 mm | 0.89 m/s, 42° | - | - |
| 1777443632 | 7.22° C | 50% | 1029.2 hPa | 0 mm | 0.45 m/s, 50° | - | - |
| 1777443320 | 7.22° C | 51% | 1029.2 hPa | 0 mm | 0.89 m/s, 17° | - | - |
| 1777443007 | 6.11° C | 54% | 1029.2 hPa | 0 mm | 0.45 m/s, 42° | - | - |
| 1777442719 | 6.11° C | 55% | 1029.1 hPa | 0 mm | 0.45 m/s, 42° | - | - |
| 1777442407 | 6.11° C | 57% | 1029.2 hPa | 0 mm | 0.45 m/s, 30° | - | - |
| 1777442119 | 5° C | 57% | 1029.2 hPa | 0 mm | 0 m/s | - | - |
| 1777441807 | 5° C | 56% | 1029.1 hPa | 0 mm | 0.45 m/s, 6° | - | - |
| 1777441520 | 5° C | 58% | 1029 hPa | 0 mm | 0 m/s | - | - |
| 1777441207 | 3.89° C | 57% | 1029 hPa | 0 mm | 0 m/s | - | - |
| 1777440920 | 5° C | 58% | 1028.9 hPa | 0 mm | 0 m/s | - | - |
| 1777440607 | 5° C | 58% | 1028.8 hPa | 0 mm | 0 m/s | - | - |
| 1777440319 | 3.89° C | 59% | 1028.7 hPa | 0 mm | 0.45 m/s, 35° | - | - |
| 1777440007 | 5° C | 58% | 1028.7 hPa | 0 mm | 0 m/s | - | - |
| 1777439720 | 5° C | 57% | 1028.7 hPa | 0 mm | 0.45 m/s, 36° | - | - |
| 1777439407 | 3.89° C | 58% | 1028.6 hPa | 0 mm | 0 m/s | - | - |
| 1777439119 | 3.89° C | 57% | 1028.6 hPa | 0 mm | 0 m/s | - | - |
| 1777438807 | 2.78° C | 62% | 1028.5 hPa | 0 mm | 0 m/s | - | - |
| 1777438520 | 1.11° C | 64% | 1028.5 hPa | 0 mm | 0.45 m/s, 36° | - | - |
| 1777438207 | 0° C | 72% | 1028.4 hPa | 0 mm | 0 m/s | - | - |
* Rain latest hour (hover to see other rain measurements)
** Current wind speed in m/s (hover to see current wind gust speed)